createdAt,value
2018-12-26T00:02:15.500Z,20.44
2018-12-26T00:04:47.298Z,20.43
2018-12-26T00:07:19.088Z,20.42
2018-12-26T00:09:51.322Z,20.42
2018-12-26T00:13:54.387Z,20.42
2018-12-26T00:16:26.223Z,20.39
2018-12-26T00:18:58.843Z,20.39
2018-12-26T00:21:30.873Z,20.38
2018-12-26T00:24:04.171Z,20.38
2018-12-26T00:26:36.683Z,20.36
2018-12-26T00:29:07.679Z,20.35
2018-12-26T00:31:38.627Z,20.37
2018-12-26T00:34:10.751Z,20.30
2018-12-26T00:36:43.061Z,20.30
2018-12-26T00:39:15.313Z,20.33
2018-12-26T00:41:47.330Z,20.32
2018-12-26T00:44:19.994Z,20.32
2018-12-26T00:46:51.578Z,20.31
2018-12-26T00:49:23.791Z,20.29
2018-12-26T00:51:55.815Z,20.29
2018-12-26T00:54:27.792Z,20.28
2018-12-26T00:56:59.813Z,20.26
2018-12-26T00:59:31.801Z,20.28
2018-12-26T01:02:03.739Z,20.26
2018-12-26T01:04:34.668Z,20.25
2018-12-26T01:07:05.506Z,20.25
2018-12-26T01:09:37.466Z,20.24
2018-12-26T01:12:09.504Z,20.24
2018-12-26T01:14:41.812Z,20.23
2018-12-26T01:17:14.310Z,20.23
2018-12-26T01:19:46.771Z,20.23
2018-12-26T01:22:19.305Z,20.23
2018-12-26T01:24:51.389Z,20.24
2018-12-26T01:27:23.507Z,20.24
2018-12-26T01:29:55.295Z,20.24
2018-12-26T01:32:27.325Z,20.23
2018-12-26T01:34:59.278Z,20.24
2018-12-26T01:37:31.551Z,20.23
2018-12-26T01:40:04.303Z,20.22
2018-12-26T01:42:36.812Z,20.22
2018-12-26T01:45:08.991Z,20.22
2018-12-26T01:47:41.440Z,20.21
2018-12-26T01:50:13.422Z,20.22
2018-12-26T01:52:46.303Z,20.21
2018-12-26T01:55:18.314Z,20.20
2018-12-26T01:57:50.302Z,20.19
2018-12-26T02:00:22.305Z,20.18
2018-12-26T02:02:54.300Z,20.19
2018-12-26T02:05:26.299Z,20.18
2018-12-26T02:07:58.896Z,20.16
2018-12-26T02:10:30.836Z,20.16
2018-12-26T02:13:02.828Z,20.15
2018-12-26T02:15:34.831Z,20.16
2018-12-26T02:18:06.821Z,20.14
2018-12-26T02:20:38.857Z,20.14
2018-12-26T02:23:10.843Z,20.15
2018-12-26T02:25:43.307Z,20.15
2018-12-26T02:28:15.317Z,20.13
2018-12-26T02:30:47.806Z,20.13
2018-12-26T02:33:19.998Z,20.13
2018-12-26T02:35:51.842Z,20.13
2018-12-26T02:38:23.800Z,20.13
2018-12-26T02:40:55.819Z,20.14
2018-12-26T02:43:27.838Z,20.14
2018-12-26T02:46:00.075Z,20.13
2018-12-26T02:48:32.335Z,20.13
2018-12-26T02:51:04.852Z,20.14
2018-12-26T02:53:37.374Z,20.14
2018-12-26T02:56:09.362Z,20.12
2018-12-26T02:58:41.791Z,20.13
2018-12-26T03:01:13.842Z,20.13
2018-12-26T03:03:45.826Z,20.13
2018-12-26T03:06:17.845Z,20.11
2018-12-26T03:08:49.879Z,20.10
2018-12-26T03:11:22.307Z,20.11
2018-12-26T03:13:54.602Z,20.10
2018-12-26T03:16:26.545Z,20.09
2018-12-26T03:19:00.808Z,20.09
2018-12-26T03:21:32.778Z,20.09
2018-12-26T03:24:04.508Z,20.07
2018-12-26T03:26:36.310Z,20.08
2018-12-26T03:29:07.899Z,20.06
2018-12-26T03:31:39.831Z,20.04
2018-12-26T03:34:12.290Z,20.04
2018-12-26T03:36:43.982Z,20.03
2018-12-26T03:39:15.835Z,20.03
2018-12-26T03:41:47.846Z,20.02
2018-12-26T03:44:19.719Z,20.02
2018-12-26T03:46:50.479Z,20.02
2018-12-26T03:49:22.302Z,20.02
2018-12-26T03:52:52.760Z,20.06
2018-12-26T03:55:23.604Z,20.01
2018-12-26T03:57:54.500Z,20.01
2018-12-26T04:00:26.309Z,20.01
2018-12-26T04:02:59.371Z,20.01
2018-12-26T04:05:31.754Z,20.01
2018-12-26T04:08:02.722Z,20.02
2018-12-26T04:10:34.820Z,20.02
2018-12-26T04:13:06.857Z,20.02
2018-12-26T04:15:38.779Z,20.01
2018-12-26T04:18:09.412Z,20.02
2018-12-26T04:20:41.419Z,20.02
2018-12-26T04:23:13.318Z,20.03
2018-12-26T04:25:44.994Z,20.02
2018-12-26T04:28:17.313Z,20.01
2018-12-26T04:30:49.350Z,20.02
2018-12-26T04:33:22.301Z,20.01
2018-12-26T04:35:54.277Z,19.99
2018-12-26T04:38:26.010Z,20.00
2018-12-26T04:40:57.803Z,19.99
2018-12-26T04:43:53.267Z,19.99
2018-12-26T04:46:25.320Z,19.98
2018-12-26T04:48:57.035Z,19.97
2018-12-26T04:51:29.468Z,19.96
2018-12-26T04:54:01.807Z,19.97
2018-12-26T04:56:33.799Z,19.96
2018-12-26T04:59:05.374Z,19.95
2018-12-26T05:01:37.073Z,19.94
2018-12-26T05:04:08.808Z,19.94
2018-12-26T05:06:40.604Z,19.93
2018-12-26T05:09:12.432Z,19.92
2018-12-26T05:11:44.378Z,19.92
2018-12-26T05:14:16.084Z,19.91
2018-12-26T05:16:48.762Z,19.90
2018-12-26T05:19:19.639Z,19.90
2018-12-26T05:21:51.038Z,19.89
2018-12-26T05:24:23.310Z,19.91
2018-12-26T05:26:55.307Z,19.92
2018-12-26T05:29:34.451Z,19.93
2018-12-26T05:32:06.770Z,19.91
2018-12-26T05:34:38.427Z,19.92
2018-12-26T05:37:10.268Z,19.95
2018-12-26T05:39:42.305Z,19.95
2018-12-26T05:42:14.375Z,19.96
2018-12-26T05:44:46.073Z,19.98
2018-12-26T05:47:19.804Z,20.00
2018-12-26T05:49:52.323Z,20.03
2018-12-26T05:52:23.916Z,20.04
2018-12-26T05:54:55.833Z,20.04
2018-12-26T05:57:27.797Z,20.06
2018-12-26T05:59:59.840Z,20.08
2018-12-26T06:02:31.797Z,20.08
2018-12-26T06:05:03.437Z,20.08
2018-12-26T06:07:35.302Z,20.09
2018-12-26T06:10:07.483Z,20.09
2018-12-26T06:12:39.301Z,20.11
2018-12-26T06:15:11.311Z,20.10
2018-12-26T06:17:43.039Z,20.09
2018-12-26T06:20:14.865Z,20.09
2018-12-26T06:22:46.888Z,20.07
2018-12-26T06:25:18.824Z,20.08
2018-12-26T06:27:51.516Z,20.07
2018-12-26T06:30:23.781Z,20.06
2018-12-26T06:32:54.605Z,20.05
2018-12-26T06:35:26.854Z,20.04
2018-12-26T06:37:58.811Z,20.04
2018-12-26T06:40:30.790Z,20.02
2018-12-26T06:43:01.652Z,20.02
2018-12-26T06:45:33.783Z,20.00
2018-12-26T06:48:04.472Z,20.00
2018-12-26T06:50:36.842Z,20.00
2018-12-26T06:53:08.786Z,19.99
2018-12-26T06:55:41.632Z,19.98
2018-12-26T06:58:13.320Z,19.97
2018-12-26T07:00:45.059Z,19.96
2018-12-26T07:03:16.789Z,19.95
2018-12-26T07:05:47.594Z,19.94
2018-12-26T07:08:19.793Z,19.87
2018-12-26T07:10:50.615Z,19.87
2018-12-26T07:13:22.398Z,19.89
2018-12-26T07:15:54.317Z,19.89
2018-12-26T07:18:25.956Z,19.88
2018-12-26T07:20:57.782Z,19.87
2018-12-26T07:23:29.796Z,19.89
2018-12-26T07:26:00.504Z,19.88
2018-12-26T07:28:32.381Z,19.88
2018-12-26T07:31:04.739Z,19.88
2018-12-26T07:36:12.800Z,19.93
2018-12-26T07:38:44.631Z,19.94
2018-12-26T07:41:16.491Z,19.86
2018-12-26T07:43:48.564Z,19.86
2018-12-26T07:46:20.773Z,19.99
2018-12-26T07:48:51.701Z,19.99
2018-12-26T07:51:23.399Z,20.00
2018-12-26T07:53:55.367Z,20.02
2018-12-26T07:56:27.269Z,20.01
2018-12-26T07:58:59.325Z,19.99
2018-12-26T08:01:31.775Z,20.00
2018-12-26T08:04:02.503Z,20.01
2018-12-26T08:06:34.318Z,20.01
2018-12-26T08:09:07.782Z,20.01
2018-12-26T08:11:39.769Z,20.01
2018-12-26T08:14:10.643Z,20.01
2018-12-26T08:16:42.068Z,19.99
2018-12-26T08:19:13.457Z,19.99
2018-12-26T08:21:45.312Z,19.99
2018-12-26T08:24:17.118Z,19.98
2018-12-26T08:26:50.383Z,19.98
2018-12-26T08:29:22.434Z,19.96
2018-12-26T08:31:55.352Z,19.96
2018-12-26T08:34:27.371Z,19.94
2018-12-26T08:36:59.317Z,19.94
2018-12-26T08:39:31.049Z,19.92
2018-12-26T08:42:02.897Z,19.91
2018-12-26T08:44:34.857Z,19.91
2018-12-26T08:47:07.312Z,19.89
2018-12-26T08:49:39.492Z,19.88
2018-12-26T08:52:11.753Z,19.86
2018-12-26T08:54:43.576Z,19.86
2018-12-26T08:57:20.570Z,19.83
2018-12-26T09:02:04.871Z,19.84
2018-12-26T09:04:36.745Z,19.81
2018-12-26T09:07:07.660Z,19.82
2018-12-26T09:09:39.268Z,19.83
2018-12-26T09:12:11.309Z,19.83
2018-12-26T09:14:43.315Z,19.82
2018-12-26T09:19:59.109Z,19.91
2018-12-26T09:22:30.621Z,19.76
2018-12-26T09:25:02.363Z,19.86
2018-12-26T09:27:37.047Z,19.86
2018-12-26T09:30:10.313Z,19.87
2018-12-26T09:32:42.385Z,19.85
2018-12-26T09:35:14.804Z,19.87
2018-12-26T09:37:46.342Z,19.88
2018-12-26T09:40:18.323Z,19.88
2018-12-26T09:42:50.797Z,19.88
2018-12-26T09:45:22.838Z,19.86
2018-12-26T09:47:55.325Z,19.88
2018-12-26T09:50:27.888Z,19.89
2018-12-26T09:53:00.767Z,19.92
2018-12-26T09:55:32.344Z,19.95
2018-12-26T09:58:04.300Z,19.95
2018-12-26T10:00:36.312Z,19.95
2018-12-26T10:03:08.738Z,19.98
2018-12-26T10:05:39.483Z,19.99
2018-12-26T10:08:11.343Z,19.99
2018-12-26T10:10:43.510Z,19.99
2018-12-26T10:13:15.456Z,20.00
2018-12-26T10:15:47.267Z,20.00
2018-12-26T10:18:19.060Z,19.99
2018-12-26T10:20:50.744Z,19.99
2018-12-26T10:23:24.692Z,20.00
2018-12-26T10:25:55.633Z,19.96
2018-12-26T10:28:26.626Z,19.96
2018-12-26T10:30:58.416Z,19.90
2018-12-26T10:33:30.728Z,19.90
2018-12-26T10:36:01.504Z,19.98
2018-12-26T10:38:33.685Z,19.96
2018-12-26T10:41:05.759Z,19.92
2018-12-26T10:43:37.772Z,19.92
2018-12-26T10:46:08.622Z,19.99
2018-12-26T10:48:40.361Z,19.97
2018-12-26T10:51:12.601Z,19.97
2018-12-26T10:53:44.359Z,19.85
2018-12-26T10:56:16.056Z,19.85
2018-12-26T10:58:48.398Z,19.97
2018-12-26T11:01:20.068Z,19.96
2018-12-26T11:03:51.707Z,19.96
2018-12-26T11:06:22.493Z,19.97
2018-12-26T11:08:54.439Z,19.92
2018-12-26T11:11:26.568Z,19.93
2018-12-26T11:13:58.336Z,19.95
2018-12-26T11:16:30.763Z,19.90
2018-12-26T11:19:02.258Z,19.95
2018-12-26T11:21:34.319Z,19.95
2018-12-26T11:24:06.829Z,19.96
2018-12-26T11:26:38.833Z,19.95
2018-12-26T11:29:18.343Z,19.94
2018-12-26T11:31:44.876Z,19.93
2018-12-26T11:34:16.905Z,19.93
2018-12-26T11:36:48.819Z,19.92
2018-12-26T11:39:21.267Z,19.92
2018-12-26T11:41:53.437Z,19.92
2018-12-26T11:44:25.299Z,19.91
2018-12-26T11:46:57.302Z,19.93
2018-12-26T11:49:29.270Z,19.92
2018-12-26T11:52:01.313Z,19.93
2018-12-26T11:54:33.689Z,19.94
2018-12-26T11:57:05.270Z,19.93
2018-12-26T11:59:38.334Z,19.92
2018-12-26T12:02:10.810Z,19.92
2018-12-26T12:04:42.420Z,19.94
2018-12-26T12:07:14.753Z,19.94
2018-12-26T12:09:45.635Z,19.93
2018-12-26T12:12:17.407Z,19.87
2018-12-26T12:14:49.307Z,19.87
2018-12-26T12:17:21.271Z,19.94
2018-12-26T12:19:53.786Z,19.95
2018-12-26T12:22:26.295Z,19.96
2018-12-26T12:24:58.029Z,19.95
2018-12-26T12:27:30.056Z,19.96
2018-12-26T12:30:02.308Z,19.93
2018-12-26T12:32:34.566Z,19.93
2018-12-26T12:35:06.886Z,19.91
2018-12-26T12:37:38.693Z,19.91
2018-12-26T12:40:11.883Z,19.92
2018-12-26T12:42:43.899Z,19.91
2018-12-26T12:45:15.934Z,19.87
2018-12-26T12:47:47.746Z,19.88
2018-12-26T12:50:18.627Z,19.88
2018-12-26T12:52:50.649Z,19.80
2018-12-26T12:55:21.546Z,19.80
2018-12-26T12:57:52.695Z,19.85
2018-12-26T13:00:23.513Z,19.84
2018-12-26T13:03:00.404Z,19.83
2018-12-26T13:05:29.751Z,19.81
2018-12-26T13:08:00.626Z,19.81
2018-12-26T13:10:32.439Z,19.80
2018-12-26T13:13:04.259Z,19.79
2018-12-26T13:15:35.996Z,19.80
2018-12-26T13:18:07.755Z,19.79
2018-12-26T13:20:38.488Z,19.79
2018-12-26T13:23:10.295Z,19.77
2018-12-26T13:25:42.382Z,19.77
2018-12-26T13:28:14.419Z,19.76
2018-12-26T13:30:46.815Z,19.75
2018-12-26T13:33:19.303Z,19.76
2018-12-26T13:35:51.424Z,19.75
2018-12-26T13:38:22.830Z,19.74
2018-12-26T13:40:54.779Z,19.74
2018-12-26T13:43:27.314Z,19.75
2018-12-26T13:45:59.360Z,19.74
2018-12-26T13:48:31.350Z,19.75
2018-12-26T13:51:03.385Z,19.78
2018-12-26T13:53:35.356Z,19.80
2018-12-26T13:56:08.301Z,19.82
2018-12-26T13:58:39.979Z,19.86
2018-12-26T14:01:12.031Z,19.89
2018-12-26T14:03:46.780Z,19.94
2018-12-26T14:06:19.361Z,19.96
2018-12-26T14:08:51.292Z,19.98
2018-12-26T14:11:23.102Z,20.00
2018-12-26T14:13:55.346Z,20.00
2018-12-26T14:16:27.802Z,19.99
2018-12-26T14:18:59.794Z,20.00
2018-12-26T14:21:31.630Z,20.00
2018-12-26T14:24:03.370Z,19.99
2018-12-26T14:26:35.054Z,19.99
2018-12-26T14:29:06.753Z,19.97
2018-12-26T14:31:38.108Z,19.94
2018-12-26T14:34:09.787Z,19.97
2018-12-26T14:36:41.856Z,19.96
2018-12-26T14:39:13.385Z,19.95
2018-12-26T14:41:45.495Z,19.92
2018-12-26T14:44:18.308Z,19.92
2018-12-26T14:46:50.065Z,19.90
2018-12-26T14:49:21.753Z,19.90
2018-12-26T14:51:52.574Z,19.91
2018-12-26T14:54:24.425Z,19.77
2018-12-26T14:56:56.629Z,19.77
2018-12-26T14:59:29.303Z,20.07
2018-12-26T15:02:01.746Z,20.07
2018-12-26T15:04:32.939Z,24.09
2018-12-26T15:07:05.377Z,31.47
2018-12-26T15:09:37.759Z,34.16
2018-12-26T15:12:08.777Z,33.86
2018-12-26T15:14:40.734Z,32.36
2018-12-26T15:17:11.456Z,30.58
2018-12-26T15:19:43.400Z,28.93
2018-12-26T15:22:15.054Z,27.59
2018-12-26T15:24:46.756Z,26.50
2018-12-26T15:27:18.416Z,25.82
2018-12-26T15:29:50.512Z,25.55
2018-12-26T15:32:22.311Z,25.59
2018-12-26T15:34:54.303Z,26.66
2018-12-26T15:37:26.825Z,31.72
2018-12-26T15:39:58.777Z,35.69
2018-12-26T15:42:30.650Z,37.64
2018-12-26T15:45:01.472Z,38.97
2018-12-26T15:47:33.458Z,39.94
2018-12-26T15:50:05.751Z,40.50
2018-12-26T15:52:37.759Z,40.68
2018-12-26T15:55:09.377Z,40.44
2018-12-26T15:57:41.761Z,39.84
2018-12-26T16:00:13.760Z,38.92
2018-12-26T16:02:46.009Z,37.87
2018-12-26T16:05:17.831Z,36.80
2018-12-26T16:07:49.429Z,35.78
2018-12-26T16:10:21.301Z,34.80
2018-12-26T16:12:53.011Z,33.88
2018-12-26T16:15:24.824Z,33.03
2018-12-26T16:17:58.137Z,32.21
2018-12-26T16:20:30.318Z,31.42
2018-12-26T16:23:02.890Z,30.69
2018-12-26T16:25:34.761Z,29.99
2018-12-26T16:28:05.668Z,29.38
2018-12-26T16:30:36.862Z,28.76
2018-12-26T16:33:08.764Z,28.21
2018-12-26T16:35:39.541Z,27.71
2018-12-26T16:38:11.735Z,26.83
2018-12-26T16:40:42.491Z,26.83
2018-12-26T16:43:14.256Z,26.43
2018-12-26T16:45:46.299Z,26.06
2018-12-26T16:48:19.311Z,25.70
2018-12-26T16:50:53.845Z,25.37
2018-12-26T16:53:26.495Z,25.05
2018-12-26T16:55:58.598Z,24.77
2018-12-26T16:58:30.453Z,24.17
2018-12-26T17:01:02.415Z,24.17
2018-12-26T17:03:41.030Z,24.01
2018-12-26T17:06:12.717Z,23.82
2018-12-26T17:08:43.509Z,23.62
2018-12-26T17:11:15.302Z,23.57
2018-12-26T17:13:49.160Z,23.48
2018-12-26T17:16:21.316Z,23.41
2018-12-26T17:18:55.703Z,23.26
2018-12-26T17:21:26.491Z,23.15
2018-12-26T17:23:58.403Z,23.02
2018-12-26T17:26:30.756Z,23.05
2018-12-26T17:29:01.815Z,24.23
2018-12-26T17:31:33.791Z,29.09
2018-12-26T17:34:05.719Z,33.65
2018-12-26T17:36:37.810Z,36.35
2018-12-26T17:39:10.762Z,37.84
2018-12-26T17:41:41.477Z,38.57
2018-12-26T17:44:13.800Z,38.77
2018-12-26T17:46:45.788Z,38.42
2018-12-26T17:49:18.053Z,37.70
2018-12-26T17:51:50.062Z,36.83
2018-12-26T17:55:31.836Z,35.86
2018-12-26T17:58:03.989Z,34.94
2018-12-26T18:01:12.827Z,33.56
2018-12-26T18:03:43.564Z,32.81
2018-12-26T18:06:15.654Z,31.08
2018-12-26T18:08:46.480Z,30.44
2018-12-26T18:11:18.278Z,30.44
2018-12-26T18:13:50.054Z,29.76
2018-12-26T18:16:21.764Z,29.17
2018-12-26T18:18:53.451Z,28.61
2018-12-26T18:21:25.559Z,28.10
2018-12-26T18:23:57.778Z,27.15
2018-12-26T18:26:29.378Z,27.15
2018-12-26T18:29:01.360Z,26.75
2018-12-26T18:31:33.297Z,26.35
2018-12-26T18:34:04.957Z,26.00
2018-12-26T18:36:37.624Z,25.67
2018-12-26T18:39:10.583Z,25.34
2018-12-26T18:41:42.410Z,24.72
2018-12-26T18:44:15.306Z,24.72
2018-12-26T18:46:47.036Z,24.53
2018-12-26T18:49:18.808Z,24.30
2018-12-26T18:51:50.378Z,24.08
2018-12-26T18:54:22.308Z,23.89
2018-12-26T18:56:54.366Z,24.17
2018-12-26T18:59:27.150Z,25.22
2018-12-26T19:01:58.907Z,26.25
2018-12-26T19:04:30.781Z,27.09
2018-12-26T19:07:02.674Z,28.19
2018-12-26T19:09:33.583Z,29.44
2018-12-26T19:12:05.585Z,29.19
2018-12-26T19:14:37.395Z,28.75
2018-12-26T19:17:09.305Z,28.75
2018-12-26T19:19:41.312Z,28.27
2018-12-26T19:22:13.314Z,27.78
2018-12-26T19:27:20.934Z,26.83
2018-12-26T19:29:59.255Z,26.38
2018-12-26T19:32:25.708Z,26.12
2018-12-26T19:34:56.619Z,26.48
2018-12-26T19:37:28.848Z,27.87
2018-12-26T19:40:24.002Z,27.87
2018-12-26T19:42:55.762Z,28.89
2018-12-26T19:45:26.498Z,29.89
2018-12-26T19:47:58.718Z,30.52
2018-12-26T19:50:31.061Z,30.48
2018-12-26T19:53:03.063Z,30.05
2018-12-26T19:55:35.063Z,29.51
2018-12-26T19:58:06.794Z,28.95
2018-12-26T20:00:38.675Z,28.39
2018-12-26T20:03:12.353Z,27.33
2018-12-26T20:05:44.267Z,27.33
2018-12-26T20:08:16.333Z,26.83
2018-12-26T20:10:48.311Z,26.38
2018-12-26T20:13:19.865Z,25.95
2018-12-26T20:15:52.311Z,25.58
2018-12-26T20:21:04.259Z,24.95
2018-12-26T20:23:36.097Z,24.59
2018-12-26T20:26:08.314Z,24.32
2018-12-26T20:28:40.434Z,24.06
2018-12-26T20:31:12.542Z,24.04
2018-12-26T20:33:44.312Z,23.96
2018-12-26T20:36:17.755Z,23.81
2018-12-26T20:38:48.471Z,23.64
2018-12-26T20:41:20.357Z,23.47
2018-12-26T20:43:52.421Z,23.28
2018-12-26T20:46:24.303Z,23.15
2018-12-26T20:48:56.298Z,22.99
2018-12-26T20:51:28.007Z,22.84
2018-12-26T20:53:59.794Z,22.71
2018-12-26T20:56:33.313Z,22.60
2018-12-26T20:59:06.594Z,22.47
2018-12-26T21:01:39.324Z,22.25
2018-12-26T21:04:11.161Z,22.25
2018-12-26T21:06:43.302Z,22.17
2018-12-26T21:09:22.542Z,22.06
2018-12-26T21:11:54.270Z,21.96
2018-12-26T21:14:26.381Z,21.84
2018-12-26T21:16:58.885Z,21.76
2018-12-26T21:19:31.719Z,21.65
2018-12-26T21:22:02.555Z,21.59
2018-12-26T21:24:34.375Z,21.44
2018-12-26T21:27:06.406Z,21.44
2018-12-26T21:29:38.761Z,21.44
2018-12-26T21:32:14.146Z,21.39
2018-12-26T21:34:44.404Z,21.33
2018-12-26T21:37:16.784Z,21.30
2018-12-26T21:39:49.710Z,21.24
2018-12-26T21:42:20.469Z,21.20
2018-12-26T21:44:52.438Z,21.16
2018-12-26T21:48:50.787Z,21.12
2018-12-26T21:51:22.842Z,21.05
2018-12-26T21:53:54.728Z,21.03
2018-12-26T21:56:25.489Z,21.00
2018-12-26T21:58:57.301Z,20.97
2018-12-26T22:01:29.019Z,20.94
2018-12-26T22:04:00.846Z,20.91
2018-12-26T22:06:32.810Z,20.92
2018-12-26T22:09:06.975Z,20.89
2018-12-26T22:11:38.806Z,20.89
2018-12-26T22:14:11.432Z,20.86
2018-12-26T22:16:44.496Z,20.86
2018-12-26T22:19:17.303Z,20.85
2018-12-26T22:21:49.568Z,20.84
2018-12-26T22:24:21.341Z,20.84
2018-12-26T22:26:53.308Z,20.84
2018-12-26T22:29:25.021Z,20.85
2018-12-26T22:31:56.806Z,20.84
2018-12-26T22:34:28.548Z,20.81
2018-12-26T22:36:59.712Z,20.81
2018-12-26T22:39:30.739Z,20.81
2018-12-26T22:42:02.251Z,20.78
2018-12-26T22:44:35.347Z,20.76
2018-12-26T22:47:07.299Z,20.74
2018-12-26T22:49:39.044Z,20.73
2018-12-26T22:52:10.816Z,20.70
2018-12-26T22:54:42.795Z,20.70
2018-12-26T22:57:15.515Z,20.67
2018-12-26T22:59:47.771Z,20.65
2018-12-26T23:02:18.495Z,20.64
2018-12-26T23:04:50.229Z,20.63
2018-12-26T23:07:22.306Z,20.60
2018-12-26T23:09:54.764Z,20.59
2018-12-26T23:12:26.979Z,20.58
2018-12-26T23:14:58.783Z,20.57
2018-12-26T23:17:29.627Z,20.56
2018-12-26T23:20:02.052Z,20.48
2018-12-26T23:22:33.727Z,20.48
2018-12-26T23:25:04.617Z,20.50
2018-12-26T23:27:36.431Z,20.47
2018-12-26T23:30:08.779Z,20.47
2018-12-26T23:32:46.775Z,20.46
2018-12-26T23:35:13.330Z,20.45
2018-12-26T23:37:45.833Z,20.43
2018-12-26T23:40:17.754Z,20.41
2018-12-26T23:42:49.070Z,20.40
2018-12-26T23:45:20.770Z,20.39
2018-12-26T23:47:51.760Z,20.38
2018-12-26T23:50:23.794Z,20.37
2018-12-26T23:52:55.760Z,20.38
2018-12-26T23:55:27.847Z,20.36
2018-12-26T23:57:59.662Z,20.37
